Terminal Aerodrome Forecast
Issued by NWS

Current Version | Previous Version | Graphics & Text | Print | Product List | Glossary On
Versions: 1 2 3 4 5 6 7 8 9 10 11 12 13 14 15 16 17 18 19 20 21 22 23 24 25 26 27 28 29 30 31 32 33 34 35 36 37 38 39 40 41 42 43 44
303
FTUS41 KRNK 241300 AAC
TAFLWB
TAF AMD
KLWB 241300Z 2413/2512 00000KT 4SM BR SCT150
      TEMPO 2413/2414 1/2SM FG VV001
     FM241400 00000KT P6SM SCT150
     FM241800 18005KT P6SM FEW050
     FM250300 14005KT P6SM BKN030=

USA.gov is the U.S. government's official web portal to all federal, state and local government web resources and services.